createdAt,value
2022-09-30T00:01:54.200Z,8.90
2022-09-30T00:04:23.568Z,8.90
2022-09-30T00:06:51.869Z,8.90
2022-09-30T00:09:19.036Z,8.90
2022-09-30T00:11:46.792Z,9.00
2022-09-30T00:14:17.552Z,9.00
2022-09-30T00:16:44.627Z,8.90
2022-09-30T00:19:11.549Z,8.90
2022-09-30T00:21:38.764Z,8.90
2022-09-30T00:24:05.675Z,8.90
2022-09-30T00:26:33.032Z,8.90
2022-09-30T00:29:00.964Z,8.90
2022-09-30T00:31:30.563Z,8.90
2022-09-30T00:34:11.519Z,8.90
2022-09-30T00:36:53.004Z,8.90
2022-09-30T00:39:27.932Z,8.80
2022-09-30T00:41:58.218Z,8.80
2022-09-30T00:44:53.751Z,8.80
2022-09-30T00:47:32.561Z,8.80
2022-09-30T00:50:03.400Z,8.80
2022-09-30T00:52:30.821Z,8.80
2022-09-30T00:54:59.104Z,8.70
2022-09-30T00:57:26.588Z,8.70
2022-09-30T00:59:53.505Z,8.70
2022-09-30T01:02:20.612Z,8.70
2022-09-30T01:04:47.480Z,8.70
2022-09-30T01:07:15.115Z,8.70
2022-09-30T01:09:42.863Z,8.60
2022-09-30T01:12:17.460Z,8.60
2022-09-30T01:14:45.100Z,8.60
2022-09-30T01:17:29.350Z,8.60
2022-09-30T01:20:27.115Z,8.60
2022-09-30T01:22:56.672Z,8.60
2022-09-30T01:25:57.261Z,8.60
2022-09-30T01:28:28.787Z,8.60
2022-09-30T01:31:19.073Z,8.60
2022-09-30T01:34:07.138Z,8.60
2022-09-30T01:36:43.261Z,8.60
2022-09-30T01:39:49.960Z,8.90
2022-09-30T01:42:24.656Z,8.70
2022-09-30T01:45:03.602Z,8.70
2022-09-30T01:47:56.148Z,8.70
2022-09-30T01:50:49.139Z,8.80
2022-09-30T01:53:30.785Z,8.80
2022-09-30T01:56:15.720Z,8.80
2022-09-30T01:58:53.818Z,8.80
2022-09-30T02:01:25.593Z,8.80
2022-09-30T02:03:55.960Z,8.70
2022-09-30T02:06:31.053Z,8.70
2022-09-30T02:09:04.329Z,8.70
2022-09-30T02:11:36.305Z,8.70
2022-09-30T02:14:14.012Z,8.70
2022-09-30T02:16:48.220Z,8.70
2022-09-30T02:19:26.545Z,8.80
2022-09-30T02:21:56.319Z,8.80
2022-09-30T02:24:25.491Z,8.80
2022-09-30T02:26:54.796Z,8.80
2022-09-30T02:29:26.178Z,8.90
2022-09-30T02:31:55.685Z,8.90
2022-09-30T02:34:32.445Z,8.80
2022-09-30T02:37:07.448Z,8.80
2022-09-30T02:39:40.956Z,8.80
2022-09-30T02:42:14.549Z,8.80
2022-09-30T02:44:42.070Z,8.80
2022-09-30T02:47:35.431Z,8.80
2022-09-30T02:50:04.249Z,8.90
2022-09-30T02:53:01.970Z,8.90
2022-09-30T02:55:42.725Z,8.90
2022-09-30T02:58:14.945Z,8.90
2022-09-30T03:00:41.846Z,8.90
2022-09-30T03:03:17.398Z,8.90
2022-09-30T03:05:44.649Z,8.90
2022-09-30T03:08:11.882Z,8.90
2022-09-30T03:10:39.068Z,8.90
2022-09-30T03:13:31.706Z,8.90
2022-09-30T03:16:04.627Z,8.90
2022-09-30T03:18:50.132Z,8.90
2022-09-30T03:21:45.728Z,9.00
2022-09-30T03:24:46.237Z,9.00
2022-09-30T03:27:25.800Z,9.00
2022-09-30T03:29:57.520Z,9.00
2022-09-30T03:32:48.443Z,9.00
2022-09-30T03:35:37.922Z,9.00
2022-09-30T03:38:25.199Z,9.00
2022-09-30T03:41:14.017Z,8.90
2022-09-30T03:43:52.365Z,9.00
2022-09-30T03:46:24.950Z,9.00
2022-09-30T03:48:55.099Z,9.00
2022-09-30T03:51:22.257Z,9.10
2022-09-30T03:53:48.993Z,9.10
2022-09-30T03:56:15.880Z,9.10
2022-09-30T03:58:44.507Z,9.10
2022-09-30T04:01:21.284Z,9.10
2022-09-30T04:03:52.782Z,9.10
2022-09-30T04:06:21.750Z,9.10
2022-09-30T04:08:49.234Z,9.10
2022-09-30T04:11:16.301Z,9.10
2022-09-30T04:13:43.062Z,9.10
2022-09-30T04:16:09.900Z,9.10
2022-09-30T04:18:38.351Z,9.10
2022-09-30T04:21:07.017Z,9.10
2022-09-30T04:23:37.637Z,9.10
2022-09-30T04:26:10.364Z,9.00
2022-09-30T04:28:37.121Z,9.00
2022-09-30T04:31:05.420Z,9.10
2022-09-30T04:33:32.876Z,9.10
2022-09-30T04:36:00.549Z,9.10
2022-09-30T04:38:27.947Z,9.00
2022-09-30T04:40:55.426Z,9.00
2022-09-30T04:43:23.529Z,9.00
2022-09-30T04:45:52.644Z,9.00
2022-09-30T04:48:19.778Z,9.00
2022-09-30T04:50:46.488Z,8.90
2022-09-30T04:53:14.807Z,8.90
2022-09-30T04:55:42.570Z,8.90
2022-09-30T04:58:09.380Z,8.90
2022-09-30T05:00:36.727Z,8.90
2022-09-30T05:03:04.109Z,8.90
2022-09-30T05:05:31.120Z,8.80
2022-09-30T05:08:05.337Z,8.80
2022-09-30T05:10:32.704Z,8.80
2022-09-30T05:12:59.726Z,8.80
2022-09-30T05:15:26.898Z,8.80
2022-09-30T05:17:54.011Z,8.80
2022-09-30T05:20:21.537Z,8.80
2022-09-30T05:22:53.603Z,8.80
2022-09-30T05:25:20.510Z,8.80
2022-09-30T05:27:51.112Z,8.80
2022-09-30T05:30:18.061Z,8.80
2022-09-30T05:32:44.828Z,8.80
2022-09-30T05:35:12.254Z,8.80
2022-09-30T05:37:38.989Z,8.80
2022-09-30T05:40:07.063Z,8.90
2022-09-30T05:42:35.919Z,8.90
2022-09-30T05:45:06.764Z,8.90
2022-09-30T05:47:34.318Z,9.00
2022-09-30T05:50:01.120Z,9.00
2022-09-30T05:52:28.336Z,9.00
2022-09-30T05:54:56.371Z,9.00
2022-09-30T05:57:23.365Z,9.00
2022-09-30T05:59:50.918Z,9.10
2022-09-30T06:02:17.624Z,9.10
2022-09-30T06:04:44.380Z,9.10
2022-09-30T06:07:11.163Z,9.10
2022-09-30T06:09:38.098Z,9.20
2022-09-30T06:12:06.223Z,9.20
2022-09-30T06:14:33.004Z,9.20
2022-09-30T06:17:02.490Z,9.20
2022-09-30T06:19:30.402Z,9.20
2022-09-30T06:21:57.797Z,9.20
2022-09-30T06:24:25.094Z,9.20
2022-09-30T06:26:51.923Z,9.30
2022-09-30T06:29:19.635Z,9.30
2022-09-30T06:31:46.563Z,9.30
2022-09-30T06:34:13.686Z,9.30
2022-09-30T06:36:40.460Z,9.40
2022-09-30T06:39:10.304Z,9.40
2022-09-30T06:41:43.938Z,9.40
2022-09-30T06:44:11.381Z,9.50
2022-09-30T06:46:48.751Z,9.50
2022-09-30T06:49:19.890Z,9.60
2022-09-30T06:51:46.656Z,9.60
2022-09-30T06:54:13.810Z,9.60
2022-09-30T06:56:40.661Z,9.70
2022-09-30T06:59:07.470Z,9.70
2022-09-30T07:01:34.279Z,9.70
2022-09-30T07:04:03.328Z,9.80
2022-09-30T07:06:31.208Z,9.80
2022-09-30T07:08:58.075Z,9.90
2022-09-30T07:11:25.161Z,9.90
2022-09-30T07:13:51.934Z,10.00
2022-09-30T07:16:19.935Z,10.00
2022-09-30T07:18:46.949Z,10.10
2022-09-30T07:21:16.225Z,10.10
2022-09-30T07:23:47.887Z,10.20
2022-09-30T07:26:19.955Z,10.20
2022-09-30T07:28:47.675Z,10.20
2022-09-30T07:31:32.394Z,10.20
2022-09-30T07:34:00.517Z,10.20
2022-09-30T07:36:32.623Z,10.30
2022-09-30T07:39:06.680Z,10.30
2022-09-30T07:41:35.859Z,10.40
2022-09-30T07:44:03.046Z,10.40
2022-09-30T07:46:32.110Z,10.40
2022-09-30T07:49:04.074Z,10.50
2022-09-30T07:51:39.124Z,10.60
2022-09-30T07:54:09.632Z,10.60
2022-09-30T07:59:28.588Z,10.60
2022-09-30T08:01:55.751Z,10.70
2022-09-30T08:04:24.172Z,10.70
2022-09-30T08:06:54.730Z,10.80
2022-09-30T08:09:23.198Z,10.80
2022-09-30T08:11:50.067Z,10.80
2022-09-30T08:14:21.956Z,10.80
2022-09-30T08:16:49.400Z,10.80
2022-09-30T08:19:22.027Z,10.80
2022-09-30T08:21:49.436Z,10.80
2022-09-30T08:24:16.590Z,10.90
2022-09-30T08:26:43.932Z,11.00
2022-09-30T08:29:16.964Z,11.00
2022-09-30T08:31:48.186Z,11.10
2022-09-30T08:34:15.795Z,11.10
2022-09-30T08:36:42.729Z,11.20
2022-09-30T08:39:10.975Z,11.30
2022-09-30T08:42:19.038Z,11.40
2022-09-30T08:44:52.796Z,11.50
2022-09-30T08:47:38.331Z,11.60
2022-09-30T08:50:20.336Z,11.60
2022-09-30T08:52:52.229Z,11.60
2022-09-30T08:55:25.721Z,11.70
2022-09-30T08:57:54.053Z,11.70
2022-09-30T09:00:22.439Z,11.80
2022-09-30T09:02:58.002Z,11.90
2022-09-30T09:05:28.784Z,11.90
2022-09-30T09:08:14.537Z,12.00
2022-09-30T09:10:48.396Z,12.10
2022-09-30T09:13:38.011Z,12.20
2022-09-30T09:16:26.927Z,12.30
2022-09-30T09:18:56.547Z,12.40
2022-09-30T09:21:32.178Z,12.40
2022-09-30T09:24:01.255Z,12.50
2022-09-30T09:26:35.387Z,12.50
2022-09-30T09:29:14.530Z,12.50
2022-09-30T09:31:41.826Z,12.60
2022-09-30T09:34:14.033Z,12.60
2022-09-30T09:36:52.663Z,12.60
2022-09-30T09:40:00.366Z,12.70
2022-09-30T09:42:47.552Z,12.60
2022-09-30T09:45:42.793Z,12.60
2022-09-30T09:48:14.066Z,12.60
2022-09-30T09:51:00.891Z,12.60
2022-09-30T09:53:40.340Z,12.60
2022-09-30T09:56:22.695Z,12.70
2022-09-30T09:59:13.306Z,12.70
2022-09-30T10:01:52.206Z,12.80
2022-09-30T10:04:26.223Z,12.90
2022-09-30T10:07:00.532Z,13.00
2022-09-30T10:09:41.467Z,13.10
2022-09-30T10:12:08.252Z,13.50
2022-09-30T10:14:46.394Z,13.90
2022-09-30T10:17:20.196Z,14.20
2022-09-30T10:19:52.343Z,14.50
2022-09-30T10:22:24.048Z,14.50
2022-09-30T10:24:50.820Z,14.30
2022-09-30T10:27:34.870Z,14.00
2022-09-30T10:30:01.797Z,13.80
2022-09-30T10:32:29.094Z,13.60
2022-09-30T10:35:04.903Z,13.50
2022-09-30T10:37:31.843Z,13.50
2022-09-30T10:40:02.403Z,13.50
2022-09-30T10:42:34.542Z,13.40
2022-09-30T10:45:10.247Z,13.30
2022-09-30T10:47:45.061Z,13.20
2022-09-30T10:50:17.159Z,13.30
2022-09-30T10:52:55.327Z,13.30
2022-09-30T10:55:22.403Z,13.30
2022-09-30T10:57:50.653Z,13.30
2022-09-30T11:00:22.805Z,13.30
2022-09-30T11:03:02.827Z,13.30
2022-09-30T11:05:32.750Z,13.40
2022-09-30T11:08:03.876Z,13.40
2022-09-30T11:10:47.119Z,13.50
2022-09-30T11:13:37.765Z,13.50
2022-09-30T11:16:32.337Z,13.50
2022-09-30T11:19:21.368Z,13.40
2022-09-30T11:22:00.756Z,13.30
2022-09-30T11:24:41.093Z,13.20
2022-09-30T11:27:20.272Z,13.10
2022-09-30T11:29:59.247Z,13.20
2022-09-30T11:32:44.084Z,13.40
2022-09-30T11:35:41.525Z,13.40
2022-09-30T11:38:29.342Z,13.50
2022-09-30T11:41:18.498Z,13.60
2022-09-30T11:43:55.055Z,13.70
2022-09-30T11:46:59.486Z,13.80
2022-09-30T11:49:45.103Z,13.80
2022-09-30T11:52:34.101Z,13.70
2022-09-30T11:55:23.603Z,13.60
2022-09-30T11:58:36.230Z,13.70
2022-09-30T12:01:00.356Z,13.70
2022-09-30T12:03:35.211Z,13.80
2022-09-30T12:06:27.416Z,13.90
2022-09-30T12:09:00.047Z,13.90
2022-09-30T12:11:45.188Z,13.90
2022-09-30T12:14:14.723Z,13.90
2022-09-30T12:16:41.672Z,13.80
2022-09-30T12:19:18.650Z,13.70
2022-09-30T12:22:04.628Z,13.60
2022-09-30T12:24:36.347Z,13.80
2022-09-30T12:27:27.803Z,13.50
2022-09-30T12:30:20.642Z,13.50
2022-09-30T12:33:02.403Z,13.40
2022-09-30T12:35:46.600Z,13.30
2022-09-30T12:38:32.468Z,13.30
2022-09-30T12:41:25.138Z,13.30
2022-09-30T12:44:27.512Z,13.30
2022-09-30T12:47:10.674Z,13.30
2022-09-30T12:49:38.992Z,13.40
2022-09-30T12:52:08.094Z,13.40
2022-09-30T12:54:42.993Z,13.40
2022-09-30T12:57:10.198Z,13.40
2022-09-30T12:59:47.062Z,14.70
2022-09-30T13:02:37.493Z,13.50
2022-09-30T13:05:32.418Z,13.60
2022-09-30T13:08:05.210Z,13.70
2022-09-30T13:10:37.753Z,13.80
2022-09-30T13:13:10.703Z,13.90
2022-09-30T13:15:41.926Z,14.00
2022-09-30T13:18:21.105Z,14.10
2022-09-30T13:21:18.587Z,14.00
2022-09-30T13:23:53.622Z,13.90
2022-09-30T13:26:26.087Z,13.80
2022-09-30T13:28:59.966Z,13.80
2022-09-30T13:31:53.522Z,13.70
2022-09-30T13:34:24.237Z,13.70
2022-09-30T13:36:51.001Z,13.70
2022-09-30T13:39:49.885Z,13.70
2022-09-30T13:42:16.593Z,13.80
2022-09-30T13:45:02.161Z,13.90
2022-09-30T13:47:43.522Z,13.90
2022-09-30T13:50:24.141Z,13.90
2022-09-30T13:52:58.862Z,13.90
2022-09-30T13:55:26.654Z,13.80
2022-09-30T13:58:16.524Z,13.80
2022-09-30T14:00:58.793Z,13.70
2022-09-30T14:03:53.458Z,13.60
2022-09-30T14:06:44.293Z,13.50
2022-09-30T14:09:21.997Z,13.40
2022-09-30T14:12:03.996Z,13.30
2022-09-30T14:14:49.871Z,13.30
2022-09-30T14:17:48.340Z,13.30
2022-09-30T14:20:34.060Z,13.20
2022-09-30T14:23:00.890Z,13.20
2022-09-30T14:25:33.901Z,13.20
2022-09-30T14:28:11.394Z,13.20
2022-09-30T14:30:41.304Z,13.20
2022-09-30T14:33:17.717Z,13.30
2022-09-30T14:35:44.656Z,13.20
2022-09-30T14:38:19.362Z,13.20
2022-09-30T14:40:51.037Z,13.20
2022-09-30T14:43:22.244Z,13.20
2022-09-30T14:45:55.304Z,13.20
2022-09-30T14:48:26.937Z,13.60
2022-09-30T14:51:00.805Z,13.20
2022-09-30T14:53:30.461Z,13.20
2022-09-30T14:55:57.594Z,13.10
2022-09-30T14:58:30.673Z,13.00
2022-09-30T15:01:06.466Z,12.90
2022-09-30T15:03:42.075Z,12.80
2022-09-30T15:06:22.629Z,12.70
2022-09-30T15:08:49.985Z,12.60
2022-09-30T15:11:22.377Z,12.50
2022-09-30T15:13:53.269Z,12.80
2022-09-30T15:16:28.238Z,12.50
2022-09-30T15:18:56.639Z,12.60
2022-09-30T15:21:25.353Z,12.70
2022-09-30T15:23:57.751Z,12.60
2022-09-30T15:26:28.155Z,12.60
2022-09-30T15:28:55.414Z,12.60
2022-09-30T15:31:28.555Z,12.50
2022-09-30T15:34:06.496Z,12.40
2022-09-30T15:36:35.653Z,12.40
2022-09-30T15:39:04.268Z,12.20
2022-09-30T15:41:31.220Z,12.10
2022-09-30T15:44:00.468Z,12.10
2022-09-30T15:46:33.668Z,12.00
2022-09-30T15:49:31.017Z,11.90
2022-09-30T15:52:24.525Z,11.90
2022-09-30T15:54:51.648Z,12.00
2022-09-30T15:57:40.215Z,12.00
2022-09-30T16:00:09.917Z,11.90
2022-09-30T16:02:36.675Z,11.80
2022-09-30T16:05:05.338Z,11.80
2022-09-30T16:07:32.716Z,11.70
2022-09-30T16:09:59.850Z,11.70
2022-09-30T16:12:32.200Z,11.60
2022-09-30T16:15:14.156Z,11.60
2022-09-30T16:17:46.282Z,11.60
2022-09-30T16:20:17.673Z,11.70
2022-09-30T16:22:44.785Z,11.90
2022-09-30T16:25:22.338Z,11.70
2022-09-30T16:28:00.958Z,11.70
2022-09-30T16:30:29.332Z,11.70
2022-09-30T16:32:58.538Z,11.70
2022-09-30T16:35:27.703Z,11.70
2022-09-30T16:38:05.963Z,11.60
2022-09-30T16:40:35.679Z,11.60
2022-09-30T16:43:07.590Z,11.60
2022-09-30T16:45:35.268Z,11.60
2022-09-30T16:48:02.572Z,11.50
2022-09-30T16:50:41.053Z,11.40
2022-09-30T16:53:10.548Z,11.30
2022-09-30T16:55:37.434Z,11.30
2022-09-30T16:58:07.636Z,11.20
2022-09-30T17:00:34.685Z,11.50
2022-09-30T17:03:01.563Z,11.00
2022-09-30T17:05:28.367Z,10.90
2022-09-30T17:07:59.323Z,10.80
2022-09-30T17:10:31.837Z,10.70
2022-09-30T17:13:03.480Z,10.70
2022-09-30T17:15:32.140Z,10.60
2022-09-30T17:17:59.778Z,10.50
2022-09-30T17:20:26.801Z,10.40
2022-09-30T17:22:53.517Z,10.40
2022-09-30T17:25:20.430Z,10.30
2022-09-30T17:27:51.370Z,10.20
2022-09-30T17:30:19.455Z,10.20
2022-09-30T17:32:46.589Z,10.10
2022-09-30T17:35:13.807Z,10.00
2022-09-30T17:37:43.827Z,10.00
2022-09-30T17:40:31.444Z,9.90
2022-09-30T17:43:13.152Z,9.80
2022-09-30T17:45:46.238Z,9.80
2022-09-30T17:48:14.501Z,9.80
2022-09-30T17:50:44.231Z,9.70
2022-09-30T17:53:18.010Z,9.70
2022-09-30T17:55:49.863Z,9.60
2022-09-30T17:58:17.964Z,9.60
2022-09-30T18:00:45.180Z,9.60
2022-09-30T18:03:12.194Z,9.60
2022-09-30T18:05:39.393Z,9.60
2022-09-30T18:08:06.186Z,9.50
2022-09-30T18:10:35.502Z,9.50
2022-09-30T18:13:02.178Z,9.50
2022-09-30T18:15:29.682Z,9.50
2022-09-30T18:17:56.502Z,9.50
2022-09-30T18:20:25.432Z,9.50
2022-09-30T18:22:52.665Z,9.50
2022-09-30T18:25:23.498Z,9.60
2022-09-30T18:27:56.411Z,9.50
2022-09-30T18:30:26.852Z,9.60
2022-09-30T18:32:54.375Z,9.60
2022-09-30T18:35:24.304Z,9.60
2022-09-30T18:37:53.751Z,9.60
2022-09-30T18:40:23.760Z,9.60
2022-09-30T18:42:59.240Z,9.60
2022-09-30T18:45:27.149Z,9.70
2022-09-30T18:47:55.715Z,9.70
2022-09-30T18:50:26.033Z,9.70
2022-09-30T18:52:53.101Z,9.70
2022-09-30T18:55:20.377Z,9.70
2022-09-30T18:57:50.506Z,9.70
2022-09-30T19:00:18.117Z,9.60
2022-09-30T19:02:45.063Z,9.60
2022-09-30T19:05:13.860Z,9.70
2022-09-30T19:07:41.010Z,9.60
2022-09-30T19:10:10.040Z,9.60
2022-09-30T19:12:38.076Z,9.60
2022-09-30T19:15:10.904Z,10.00
2022-09-30T19:17:37.689Z,9.50
2022-09-30T19:20:06.010Z,9.40
2022-09-30T19:22:37.257Z,9.40
2022-09-30T19:25:12.531Z,10.60
2022-09-30T19:27:40.936Z,9.40
2022-09-30T19:30:09.904Z,9.50
2022-09-30T19:32:37.221Z,9.50
2022-09-30T19:35:06.915Z,9.40
2022-09-30T19:37:34.457Z,9.50
2022-09-30T19:40:11.512Z,9.50
2022-09-30T19:42:44.280Z,9.50
2022-09-30T19:45:11.065Z,9.50
2022-09-30T19:47:38.268Z,9.40
2022-09-30T19:50:07.010Z,9.40
2022-09-30T19:52:34.689Z,9.40
2022-09-30T19:55:13.186Z,9.40
2022-09-30T19:57:42.890Z,9.40
2022-09-30T20:00:12.687Z,9.40
2022-09-30T20:02:39.580Z,9.40
2022-09-30T20:05:07.068Z,9.50
2022-09-30T20:07:35.171Z,9.50
2022-09-30T20:10:02.254Z,9.50
2022-09-30T20:12:29.301Z,9.50
2022-09-30T20:15:14.846Z,9.50
2022-09-30T20:17:41.597Z,9.50
2022-09-30T20:20:27.479Z,9.50
2022-09-30T20:22:54.185Z,9.50
2022-09-30T20:25:20.983Z,9.50
2022-09-30T20:27:52.119Z,9.50
2022-09-30T20:30:19.619Z,9.40
2022-09-30T20:32:46.348Z,9.40
2022-09-30T20:35:13.249Z,9.40
2022-09-30T20:37:40.915Z,9.40
2022-09-30T20:40:09.630Z,9.40
2022-09-30T20:42:38.329Z,9.40
2022-09-30T20:45:06.487Z,9.30
2022-09-30T20:47:33.299Z,9.30
2022-09-30T20:50:00.052Z,9.40
2022-09-30T20:52:26.918Z,9.30
2022-09-30T20:54:53.689Z,9.30
2022-09-30T20:57:20.387Z,9.40
2022-09-30T20:59:47.343Z,9.30
2022-09-30T21:02:14.385Z,9.40
2022-09-30T21:04:41.703Z,9.40
2022-09-30T21:07:08.569Z,9.40
2022-09-30T21:09:35.423Z,9.40
2022-09-30T21:12:02.195Z,9.40
2022-09-30T21:14:28.988Z,9.40
2022-09-30T21:16:55.678Z,9.40
2022-09-30T21:19:22.680Z,9.40
2022-09-30T21:21:49.429Z,9.40
2022-09-30T21:24:16.437Z,9.30
2022-09-30T21:26:43.376Z,9.30
2022-09-30T21:29:10.091Z,9.30
2022-09-30T21:31:37.967Z,9.30
2022-09-30T21:34:04.973Z,9.20
2022-09-30T21:36:32.181Z,9.30
2022-09-30T21:39:02.626Z,9.30
2022-09-30T21:41:30.014Z,9.30
2022-09-30T21:43:58.392Z,9.30
2022-09-30T21:46:26.775Z,9.30
2022-09-30T21:49:07.360Z,9.60
2022-09-30T21:51:35.370Z,9.30
2022-09-30T21:54:02.843Z,9.30
2022-09-30T21:56:29.746Z,9.30
2022-09-30T21:58:56.843Z,9.30
2022-09-30T22:01:23.641Z,9.30
2022-09-30T22:03:50.421Z,9.30
2022-09-30T22:06:19.223Z,9.30
2022-09-30T22:08:46.005Z,9.30
2022-09-30T22:11:24.820Z,9.30
2022-09-30T22:13:55.403Z,9.30
2022-09-30T22:16:29.709Z,9.40
2022-09-30T22:19:00.116Z,9.20
2022-09-30T22:21:31.491Z,9.20
2022-09-30T22:23:59.380Z,9.20
2022-09-30T22:26:26.309Z,9.10
2022-09-30T22:28:55.585Z,9.10
2022-09-30T22:31:24.831Z,9.10
2022-09-30T22:34:12.312Z,9.10
2022-09-30T22:36:57.669Z,9.10
2022-09-30T22:39:25.033Z,9.10
2022-09-30T22:41:53.926Z,9.10
2022-09-30T22:44:30.000Z,9.10
2022-09-30T22:47:00.195Z,9.10
2022-09-30T22:49:28.161Z,9.10
2022-09-30T22:51:56.128Z,9.10
2022-09-30T22:54:24.256Z,9.10
2022-09-30T22:56:51.242Z,9.00
2022-09-30T22:59:22.273Z,9.00
2022-09-30T23:01:49.272Z,9.00
2022-09-30T23:04:17.323Z,9.00
2022-09-30T23:06:48.664Z,9.00
2022-09-30T23:09:16.437Z,9.00
2022-09-30T23:11:44.029Z,9.00
2022-09-30T23:14:11.011Z,8.90
2022-09-30T23:16:37.833Z,8.90
2022-09-30T23:19:04.608Z,8.90
2022-09-30T23:21:32.136Z,8.90
2022-09-30T23:23:59.553Z,8.90
2022-09-30T23:26:28.362Z,8.90
2022-09-30T23:29:00.324Z,8.90
2022-09-30T23:31:27.704Z,8.90
2022-09-30T23:33:57.245Z,8.90
2022-09-30T23:36:29.696Z,8.90
2022-09-30T23:39:02.683Z,8.90
2022-09-30T23:41:31.077Z,8.90
2022-09-30T23:43:58.146Z,8.90
2022-09-30T23:46:25.376Z,8.90
2022-09-30T23:48:52.119Z,8.90
2022-09-30T23:51:19.738Z,8.80
2022-09-30T23:53:46.925Z,8.90
2022-09-30T23:56:16.341Z,8.80
2022-09-30T23:58:43.832Z,8.80
